sensor_id;sensor_type;location;lat;lon;timestamp;pressure;altitude;pressure_sealevel;temperature;humidity
68965;BME280;56017;48.680;8.998;2023-03-03T00:00:07;96860;;;3.2;76
68965;BME280;56017;48.680;8.998;2023-03-03T00:05:09;96860;;;3.3;75.5
68965;BME280;56017;48.680;8.998;2023-03-03T00:10:12;96860;;;3.4;74.5
68965;BME280;56017;48.680;8.998;2023-03-03T00:12:49;96860;;;3.3;75
68965;BME280;56017;48.680;8.998;2023-03-03T00:15:15;96870;;;3.2;75.5
68965;BME280;56017;48.680;8.998;2023-03-03T00:17:51;96870;;;3;75.5
68965;BME280;56017;48.680;8.998;2023-03-03T00:20:33;96870;;;2.8;75.5
68965;BME280;56017;48.680;8.998;2023-03-03T00:22:53;96870;;;2.7;76
68965;BME280;56017;48.680;8.998;2023-03-03T00:25:27;96870;;;2.8;75.5
68965;BME280;56017;48.680;8.998;2023-03-03T00:27:55;96870;;;2.9;75
68965;BME280;56017;48.680;8.998;2023-03-03T00:30:23;96870;;;3;75.5
68965;BME280;56017;48.680;8.998;2023-03-03T00:32:57;96870;;;3;75.5
68965;BME280;56017;48.680;8.998;2023-03-03T00:35:25;96870;;;3;75.5
68965;BME280;56017;48.680;8.998;2023-03-03T00:37:59;96870;;;2.9;75.5
68965;BME280;56017;48.680;8.998;2023-03-03T00:40:30;96870;;;2.9;75.5
68965;BME280;56017;48.680;8.998;2023-03-03T00:43:01;96870;;;2.9;75.5
68965;BME280;56017;48.680;8.998;2023-03-03T00:45:27;96870;;;2.9;75
68965;BME280;56017;48.680;8.998;2023-03-03T00:49:07;96870;;;2.9;74.5
68965;BME280;56017;48.680;8.998;2023-03-03T00:50:28;96870;;;2.7;74.5
68965;BME280;56017;48.680;8.998;2023-03-03T00:55:29;96870;;;2.2;75.5
68965;BME280;56017;48.680;8.998;2023-03-03T01:00:33;96860;;;2.1;75.5
68965;BME280;56017;48.680;8.998;2023-03-03T01:03:10;96870;;;2.1;75.5
68965;BME280;56017;48.680;8.998;2023-03-03T01:05:33;96870;;;2.1;75.5
68965;BME280;56017;48.680;8.998;2023-03-03T01:08:04;96860;;;2;75
68965;BME280;56017;48.680;8.998;2023-03-03T01:10:36;96870;;;1.8;75
68965;BME280;56017;48.680;8.998;2023-03-03T01:13:12;96870;;;1.7;75.5
68965;BME280;56017;48.680;8.998;2023-03-03T01:15:37;96860;;;1.6;75.5
68965;BME280;56017;48.680;8.998;2023-03-03T01:18:14;96870;;;1.4;75.5
68965;BME280;56017;48.680;8.998;2023-03-03T01:20:39;96870;;;1.3;76
68965;BME280;56017;48.680;8.998;2023-03-03T01:25:41;96870;;;1.2;76
68965;BME280;56017;48.680;8.998;2023-03-03T01:30:43;96870;;;1;76
68965;BME280;56017;48.680;8.998;2023-03-03T01:33:20;96860;;;1;76
68965;BME280;56017;48.680;8.998;2023-03-03T01:35:45;96860;;;1;75.5
68965;BME280;56017;48.680;8.998;2023-03-03T01:38:22;96860;;;1;75.5
68965;BME280;56017;48.680;8.998;2023-03-03T01:40:54;96860;;;0.8;75.5
68965;BME280;56017;48.680;8.998;2023-03-03T01:48:29;96870;;;0.6;76
68965;BME280;56017;48.680;8.998;2023-03-03T01:50:52;96870;;;0.7;76
68965;BME280;56017;48.680;8.998;2023-03-03T01:53:32;96870;;;0.6;75.5
68965;BME280;56017;48.680;8.998;2023-03-03T01:55:52;96870;;;0.6;76
68965;BME280;56017;48.680;8.998;2023-03-03T01:58:32;96860;;;0.6;76
68965;BME280;56017;48.680;8.998;2023-03-03T02:00:56;96860;;;0.6;76
68965;BME280;56017;48.680;8.998;2023-03-03T02:03:25;96860;;;0.6;75.5
68965;BME280;56017;48.680;8.998;2023-03-03T02:05:58;96860;;;0.5;75.5
68965;BME280;56017;48.680;8.998;2023-03-03T02:10:58;96850;;;0.3;76
68965;BME280;56017;48.680;8.998;2023-03-03T02:16:00;96840;;;0.4;76
68965;BME280;56017;48.680;8.998;2023-03-03T02:18:31;96840;;;0.4;75.5
68965;BME280;56017;48.680;8.998;2023-03-03T02:21:06;96850;;;0.3;75.5
68965;BME280;56017;48.680;8.998;2023-03-03T02:23:34;96840;;;0.2;75.5
68965;BME280;56017;48.680;8.998;2023-03-03T02:26:05;96840;;;0.1;76
68965;BME280;56017;48.680;8.998;2023-03-03T02:28:36;96840;;;0.2;76
68965;BME280;56017;48.680;8.998;2023-03-03T02:31:08;96840;;;0.2;76
68965;BME280;56017;48.680;8.998;2023-03-03T02:33:38;96830;;;0.1;75.5
68965;BME280;56017;48.680;8.998;2023-03-03T02:36:10;96840;;;0;75.5
68965;BME280;56017;48.680;8.998;2023-03-03T02:38:42;96840;;;0;76
68965;BME280;56017;48.680;8.998;2023-03-03T02:41:20;96840;;;0;76
68965;BME280;56017;48.680;8.998;2023-03-03T02:43:53;96840;;;0;76
68965;BME280;56017;48.680;8.998;2023-03-03T02:46:12;96840;;;0.1;75.5
68965;BME280;56017;48.680;8.998;2023-03-03T02:48:49;96840;;;0.1;75.5
68965;BME280;56017;48.680;8.998;2023-03-03T02:51:14;96840;;;0;75.5
68965;BME280;56017;48.680;8.998;2023-03-03T02:53:45;96850;;;0;75.5
68965;BME280;56017;48.680;8.998;2023-03-03T02:56:16;96850;;;-0.1;76
68965;BME280;56017;48.680;8.998;2023-03-03T02:58:54;96850;;;0;76
68965;BME280;56017;48.680;8.998;2023-03-03T03:01:18;96850;;;0;76
68965;BME280;56017;48.680;8.998;2023-03-03T03:03:55;96850;;;0;76.5
68965;BME280;56017;48.680;8.998;2023-03-03T03:06:20;96860;;;0.1;76.5
68965;BME280;56017;48.680;8.998;2023-03-03T03:08:51;96850;;;0.3;76.5
68965;BME280;56017;48.680;8.998;2023-03-03T03:11:22;96850;;;0.4;76
68965;BME280;56017;48.680;8.998;2023-03-03T03:13:53;96850;;;0.4;76
68965;BME280;56017;48.680;8.998;2023-03-03T03:16:24;96850;;;0.4;76
68965;BME280;56017;48.680;8.998;2023-03-03T03:18:55;96850;;;0.5;76.5
68965;BME280;56017;48.680;8.998;2023-03-03T03:21:26;96860;;;0.7;76.5
68965;BME280;56017;48.680;8.998;2023-03-03T03:23:57;96850;;;0.9;75.5
68965;BME280;56017;48.680;8.998;2023-03-03T03:26:28;96850;;;1;75.5
68965;BME280;56017;48.680;8.998;2023-03-03T03:28:59;96850;;;1;76
68965;BME280;56017;48.680;8.998;2023-03-03T03:31:30;96850;;;1.1;76
68965;BME280;56017;48.680;8.998;2023-03-03T03:34:01;96850;;;1.3;75.5
68965;BME280;56017;48.680;8.998;2023-03-03T03:36:31;96850;;;1.4;76
68965;BME280;56017;48.680;8.998;2023-03-03T03:39:09;96850;;;1.5;75.5
68965;BME280;56017;48.680;8.998;2023-03-03T03:41:33;96850;;;1.6;76
68965;BME280;56017;48.680;8.998;2023-03-03T03:44:04;96850;;;1.7;75.5
68965;BME280;56017;48.680;8.998;2023-03-03T03:46:35;96850;;;1.9;75
68965;BME280;56017;48.680;8.998;2023-03-03T03:49:13;96850;;;2;74.5
68965;BME280;56017;48.680;8.998;2023-03-03T03:51:37;96850;;;1.9;75
68965;BME280;56017;48.680;8.998;2023-03-03T03:54:08;96850;;;1.8;75
68965;BME280;56017;48.680;8.998;2023-03-03T03:56:39;96850;;;1.7;75.5
68965;BME280;56017;48.680;8.998;2023-03-03T04:01:48;96850;;;1.6;76
68965;BME280;56017;48.680;8.998;2023-03-03T04:04:12;96850;;;1.8;76
68965;BME280;56017;48.680;8.998;2023-03-03T04:06:50;96850;;;2.1;75.5
68965;BME280;56017;48.680;8.998;2023-03-03T04:09:14;96850;;;2.1;75.5
68965;BME280;56017;48.680;8.998;2023-03-03T04:11:52;96860;;;2.1;75.5
68965;BME280;56017;48.680;8.998;2023-03-03T04:14:16;96850;;;2.1;75.5
68965;BME280;56017;48.680;8.998;2023-03-03T04:16:54;96850;;;2;75.5
68965;BME280;56017;48.680;8.998;2023-03-03T04:19:18;96850;;;1.8;75.5
68965;BME280;56017;48.680;8.998;2023-03-03T04:21:56;96850;;;1.8;76
68965;BME280;56017;48.680;8.998;2023-03-03T04:24:20;96850;;;2;76
68965;BME280;56017;48.680;8.998;2023-03-03T04:26:58;96850;;;2.3;75.5
68965;BME280;56017;48.680;8.998;2023-03-03T04:29:22;96860;;;2.4;75
68965;BME280;56017;48.680;8.998;2023-03-03T04:32:00;96860;;;2.4;75
68965;BME280;56017;48.680;8.998;2023-03-03T04:34:24;96850;;;2.3;75.5
68965;BME280;56017;48.680;8.998;2023-03-03T04:37:01;96860;;;2.4;76
68965;BME280;56017;48.680;8.998;2023-03-03T04:39:26;96860;;;2.5;75.5
68965;BME280;56017;48.680;8.998;2023-03-03T04:42:04;96860;;;2.5;75.5
68965;BME280;56017;48.680;8.998;2023-03-03T04:46:58;96860;;;2.4;75.5
68965;BME280;56017;48.680;8.998;2023-03-03T04:49:29;96870;;;2.4;75.5
68965;BME280;56017;48.680;8.998;2023-03-03T04:52:00;96870;;;2.5;75.5
68965;BME280;56017;48.680;8.998;2023-03-03T04:54:33;96870;;;2.6;75.5
68965;BME280;56017;48.680;8.998;2023-03-03T04:57:02;96870;;;2.7;75
68965;BME280;56017;48.680;8.998;2023-03-03T05:02:10;96870;;;2.7;75
68965;BME280;56017;48.680;8.998;2023-03-03T05:04:35;96870;;;2.8;74.5
68965;BME280;56017;48.680;8.998;2023-03-03T05:09:37;96870;;;2.9;74.5
68965;BME280;56017;48.680;8.998;2023-03-03T05:12:08;96880;;;2.8;74.5
68965;BME280;56017;48.680;8.998;2023-03-03T05:14:39;96890;;;2.8;74.5
68965;BME280;56017;48.680;8.998;2023-03-03T05:17:10;96890;;;2.7;75
68965;BME280;56017;48.680;8.998;2023-03-03T05:19:41;96890;;;2.6;75.5
68965;BME280;56017;48.680;8.998;2023-03-03T05:22:12;96890;;;2.6;75.5
68965;BME280;56017;48.680;8.998;2023-03-03T05:24:49;96880;;;2.6;75.5
68965;BME280;56017;48.680;8.998;2023-03-03T05:27:14;96890;;;2.6;76
68965;BME280;56017;48.680;8.998;2023-03-03T05:32:16;96890;;;2.9;74.5
68965;BME280;56017;48.680;8.998;2023-03-03T05:34:47;96880;;;2.8;75
68965;BME280;56017;48.680;8.998;2023-03-03T05:37:17;96880;;;2.7;75
68965;BME280;56017;48.680;8.998;2023-03-03T05:39:49;96880;;;2.6;75.5
68965;BME280;56017;48.680;8.998;2023-03-03T05:42:25;96880;;;2.5;75.5
68965;BME280;56017;48.680;8.998;2023-03-03T05:45:02;96890;;;2.6;76
68965;BME280;56017;48.680;8.998;2023-03-03T05:47:26;96890;;;2.7;76
68965;BME280;56017;48.680;8.998;2023-03-03T05:49:50;96890;;;2.8;76
68965;BME280;56017;48.680;8.998;2023-03-03T05:52:21;96890;;;3;75
68965;BME280;56017;48.680;8.998;2023-03-03T05:54:52;96900;;;3.1;74.5
68965;BME280;56017;48.680;8.998;2023-03-03T05:57:23;96890;;;3.1;74
68965;BME280;56017;48.680;8.998;2023-03-03T05:59:54;96900;;;3.1;74.5
68965;BME280;56017;48.680;8.998;2023-03-03T06:02:25;96900;;;3.1;75
68965;BME280;56017;48.680;8.998;2023-03-03T06:04:56;96910;;;3.1;75
68965;BME280;56017;48.680;8.998;2023-03-03T06:07:27;96900;;;3.2;74.5
68965;BME280;56017;48.680;8.998;2023-03-03T06:09:58;96910;;;3.2;74
68965;BME280;56017;48.680;8.998;2023-03-03T06:15:07;96900;;;3.2;74.5
68965;BME280;56017;48.680;8.998;2023-03-03T06:17:37;96910;;;3.2;75
68965;BME280;56017;48.680;8.998;2023-03-03T06:20:02;96910;;;3.1;75.5
68965;BME280;56017;48.680;8.998;2023-03-03T06:22:33;96910;;;3;75.5
68965;BME280;56017;48.680;8.998;2023-03-03T06:25:10;96910;;;2.9;75.5
68965;BME280;56017;48.680;8.998;2023-03-03T06:30:12;96920;;;2.9;76
68965;BME280;56017;48.680;8.998;2023-03-03T06:32:42;96920;;;3.1;76
68965;BME280;56017;48.680;8.998;2023-03-03T06:35:06;96930;;;3.2;76
68965;BME280;56017;48.680;8.998;2023-03-03T06:37:37;96930;;;3.3;75.5
68965;BME280;56017;48.680;8.998;2023-03-03T06:42:39;96930;;;3.4;75.5
68965;BME280;56017;48.680;8.998;2023-03-03T06:50:18;96940;;;3.4;75.5
68965;BME280;56017;48.680;8.998;2023-03-03T06:53:17;96950;;;3.5;75.5
68965;BME280;56017;48.680;8.998;2023-03-03T06:55:24;96950;;;3.6;75
68965;BME280;56017;48.680;8.998;2023-03-03T07:00:22;96950;;;3.8;74.5
68965;BME280;56017;48.680;8.998;2023-03-03T07:02:43;96950;;;3.9;74.5
68965;BME280;56017;48.680;8.998;2023-03-03T07:05:15;96950;;;3.8;75
68965;BME280;56017;48.680;8.998;2023-03-03T07:07:45;96960;;;3.7;75.5
68965;BME280;56017;48.680;8.998;2023-03-03T07:10:36;96960;;;3.7;75.5
68965;BME280;56017;48.680;8.998;2023-03-03T07:12:53;96960;;;3.9;75.5
68965;BME280;56017;48.680;8.998;2023-03-03T07:15:26;96960;;;4;75
68965;BME280;56017;48.680;8.998;2023-03-03T07:20:34;96960;;;4.1;75
68965;BME280;56017;48.680;8.998;2023-03-03T07:22:54;96970;;;4;75.5
68965;BME280;56017;48.680;8.998;2023-03-03T07:27:48;96970;;;4.2;75
68965;BME280;56017;48.680;8.998;2023-03-03T07:30:27;96970;;;4.2;75.5
68965;BME280;56017;48.680;8.998;2023-03-03T07:32:51;96970;;;4.4;75
68965;BME280;56017;48.680;8.998;2023-03-03T07:35:25;96970;;;4.4;75
68965;BME280;56017;48.680;8.998;2023-03-03T07:37:52;96970;;;4.4;75
68965;BME280;56017;48.680;8.998;2023-03-03T07:40:28;96970;;;4.5;75.5
68965;BME280;56017;48.680;8.998;2023-03-03T07:42:54;96970;;;4.7;74.5
68965;BME280;56017;48.680;8.998;2023-03-03T07:45:26;96970;;;4.8;74.5
68965;BME280;56017;48.680;8.998;2023-03-03T07:48:58;96970;;;4.8;74.5
68965;BME280;56017;48.680;8.998;2023-03-03T07:50:26;96970;;;4.8;74.5
68965;BME280;56017;48.680;8.998;2023-03-03T07:52:58;96980;;;4.9;74.5
68965;BME280;56017;48.680;8.998;2023-03-03T07:55:36;96970;;;5.1;74.5
68965;BME280;56017;48.680;8.998;2023-03-03T08:02:57;96980;;;5;75
68965;BME280;56017;48.680;8.998;2023-03-03T08:05:27;96980;;;5.1;75
68965;BME280;56017;48.680;8.998;2023-03-03T08:08:28;96980;;;5.3;75
68965;BME280;56017;48.680;8.998;2023-03-03T08:10:30;96980;;;5.3;75.5
68965;BME280;56017;48.680;8.998;2023-03-03T08:15:30;96990;;;5.4;75.5
68965;BME280;56017;48.680;8.998;2023-03-03T08:25:33;96980;;;5.5;74.5
68965;BME280;56017;48.680;8.998;2023-03-03T08:28:02;96980;;;5.4;74.5
68965;BME280;56017;48.680;8.998;2023-03-03T08:38:18;96980;;;5.9;75
68965;BME280;56017;48.680;8.998;2023-03-03T08:40:48;96980;;;6.1;74.5
68965;BME280;56017;48.680;8.998;2023-03-03T08:43:18;96980;;;6.1;74.5
68965;BME280;56017;48.680;8.998;2023-03-03T08:50:43;96990;;;6.2;74.5
68965;BME280;56017;48.680;8.998;2023-03-03T08:53:15;96990;;;6.1;75.5
68965;BME280;56017;48.680;8.998;2023-03-03T08:55:46;96990;;;6.2;75
68965;BME280;56017;48.680;8.998;2023-03-03T09:00:47;96990;;;6.1;75
68965;BME280;56017;48.680;8.998;2023-03-03T09:03:18;96990;;;6;75
68965;BME280;56017;48.680;8.998;2023-03-03T09:05:49;97000;;;5.8;76
68965;BME280;56017;48.680;8.998;2023-03-03T09:08:21;97000;;;5.8;76
68965;BME280;56017;48.680;8.998;2023-03-03T09:10:51;97000;;;5.8;76
68965;BME280;56017;48.680;8.998;2023-03-03T09:15:53;97010;;;5.9;76
68965;BME280;56017;48.680;8.998;2023-03-03T09:18:30;97010;;;6;76.5
68965;BME280;56017;48.680;8.998;2023-03-03T09:20:55;97010;;;6.4;76
68965;BME280;56017;48.680;8.998;2023-03-03T09:23:31;97020;;;6.7;74.5
68965;BME280;56017;48.680;8.998;2023-03-03T09:25:58;97020;;;6.7;74.5
68965;BME280;56017;48.680;8.998;2023-03-03T09:28:29;97020;;;6.7;75.5
68965;BME280;56017;48.680;8.998;2023-03-03T09:31:00;97020;;;6.8;74.5
68965;BME280;56017;48.680;8.998;2023-03-03T09:33:37;97020;;;6.7;75.5
68965;BME280;56017;48.680;8.998;2023-03-03T09:41:38;97010;;;7.4;74
68965;BME280;56017;48.680;8.998;2023-03-03T09:46:08;97020;;;7.4;74
68965;BME280;56017;48.680;8.998;2023-03-03T09:49:10;97020;;;7.2;75
68965;BME280;56017;48.680;8.998;2023-03-03T09:51:10;97020;;;7;75
68965;BME280;56017;48.680;8.998;2023-03-03T09:54:44;97020;;;7.6;75
68965;BME280;56017;48.680;8.998;2023-03-03T09:58:44;97020;;;8;74
68965;BME280;56017;48.680;8.998;2023-03-03T10:01:15;97020;;;8.3;73.5
68965;BME280;56017;48.680;8.998;2023-03-03T10:03:46;97010;;;8.5;73.5
68965;BME280;56017;48.680;8.998;2023-03-03T10:06:28;97010;;;8.9;73.5
68965;BME280;56017;48.680;8.998;2023-03-03T10:11:17;97010;;;9.7;72.5
68965;BME280;56017;48.680;8.998;2023-03-03T10:18:51;97010;;;9.8;72.5
68965;BME280;56017;48.680;8.998;2023-03-03T10:21:23;97010;;;10.4;72.5
68965;BME280;56017;48.680;8.998;2023-03-03T10:26:57;97020;;;10.1;72.5
68965;BME280;56017;48.680;8.998;2023-03-03T10:29:09;97020;;;9.8;73.5
68965;BME280;56017;48.680;8.998;2023-03-03T10:34:03;97020;;;9.9;73.5
68965;BME280;56017;48.680;8.998;2023-03-03T10:36:26;97020;;;9.9;73.5
68965;BME280;56017;48.680;8.998;2023-03-03T10:39:08;97020;;;9.9;74
68965;BME280;56017;48.680;8.998;2023-03-03T10:41:30;97020;;;10.1;74.5
68965;BME280;56017;48.680;8.998;2023-03-03T10:44:07;97020;;;10.1;74
68965;BME280;56017;48.680;8.998;2023-03-03T10:46:26;97010;;;9.9;74
68965;BME280;56017;48.680;8.998;2023-03-03T10:49:01;97010;;;9.8;74
68965;BME280;56017;48.680;8.998;2023-03-03T10:51:27;97010;;;10;74.5
68965;BME280;56017;48.680;8.998;2023-03-03T10:53:58;97010;;;10.6;74
68965;BME280;56017;48.680;8.998;2023-03-03T10:56:33;97010;;;10.8;73.5
68965;BME280;56017;48.680;8.998;2023-03-03T10:59:00;97010;;;11.1;73.5
68965;BME280;56017;48.680;8.998;2023-03-03T11:04:15;97010;;;11.2;73.5
68965;BME280;56017;48.680;8.998;2023-03-03T11:06:34;97000;;;11.6;73.5
68965;BME280;56017;48.680;8.998;2023-03-03T11:09:00;97000;;;11.4;74.5
68965;BME280;56017;48.680;8.998;2023-03-03T11:14:16;97000;;;12.9;73
68965;BME280;56017;48.680;8.998;2023-03-03T11:17:01;97000;;;12.8;72.5
68965;BME280;56017;48.680;8.998;2023-03-03T11:19:20;97000;;;12.6;73.5
68965;BME280;56017;48.680;8.998;2023-03-03T11:21:50;97000;;;13;73
68965;BME280;56017;48.680;8.998;2023-03-03T11:29:15;96990;;;13.6;72.5
68965;BME280;56017;48.680;8.998;2023-03-03T11:31:47;96990;;;13.7;72.5
68965;BME280;56017;48.680;8.998;2023-03-03T11:34:13;96990;;;13.7;72.5
68965;BME280;56017;48.680;8.998;2023-03-03T11:36:43;96980;;;13.8;72
68965;BME280;56017;48.680;8.998;2023-03-03T11:39:13;96990;;;13.8;72.5
68965;BME280;56017;48.680;8.998;2023-03-03T11:42:01;96980;;;13.7;73
68965;BME280;56017;48.680;8.998;2023-03-03T11:44:21;96990;;;13.4;73.5
68965;BME280;56017;48.680;8.998;2023-03-03T11:46:53;96990;;;13;74
68965;BME280;56017;48.680;8.998;2023-03-03T11:49:22;96980;;;13;74
68965;BME280;56017;48.680;8.998;2023-03-03T11:52:02;96980;;;12.9;74
68965;BME280;56017;48.680;8.998;2023-03-03T11:54:22;96990;;;12.8;74
68965;BME280;56017;48.680;8.998;2023-03-03T11:57:00;96990;;;12.6;74.5
68965;BME280;56017;48.680;8.998;2023-03-03T11:59:26;96980;;;12.4;74.5
68965;BME280;56017;48.680;8.998;2023-03-03T12:02:00;96980;;;12.2;74.5
68965;BME280;56017;48.680;8.998;2023-03-03T12:04:31;96970;;;12;75
68965;BME280;56017;48.680;8.998;2023-03-03T12:09:30;96970;;;12.1;75
68965;BME280;56017;48.680;8.998;2023-03-03T12:12:05;96970;;;12.3;74.5
68965;BME280;56017;48.680;8.998;2023-03-03T12:14:33;96970;;;12.2;73.5
68965;BME280;56017;48.680;8.998;2023-03-03T12:17:05;96970;;;12;74
68965;BME280;56017;48.680;8.998;2023-03-03T12:20:08;96970;;;12.1;75
68965;BME280;56017;48.680;8.998;2023-03-03T12:22:03;96970;;;12.3;75
68965;BME280;56017;48.680;8.998;2023-03-03T12:24:45;96970;;;12.5;75
68965;BME280;56017;48.680;8.998;2023-03-03T12:27:19;96970;;;12.6;74.5
68965;BME280;56017;48.680;8.998;2023-03-03T12:29:44;96970;;;12.7;74
68965;BME280;56017;48.680;8.998;2023-03-03T12:32:06;96970;;;12.8;74
68965;BME280;56017;48.680;8.998;2023-03-03T12:34:45;96970;;;13;74
68965;BME280;56017;48.680;8.998;2023-03-03T12:37:10;96970;;;12.8;74
68965;BME280;56017;48.680;8.998;2023-03-03T12:40:08;96960;;;12.9;74
68965;BME280;56017;48.680;8.998;2023-03-03T12:42:17;96970;;;13.2;73
68965;BME280;56017;48.680;8.998;2023-03-03T12:44:46;96960;;;13.4;72.5
68965;BME280;56017;48.680;8.998;2023-03-03T12:47:26;96960;;;14.1;71.5
68965;BME280;56017;48.680;8.998;2023-03-03T12:49:50;96960;;;14.4;71.5
68965;BME280;56017;48.680;8.998;2023-03-03T12:54:49;96960;;;16.1;68.5
68965;BME280;56017;48.680;8.998;2023-03-03T12:57:15;96960;;;17.2;66.5
68965;BME280;56017;48.680;8.998;2023-03-03T12:59:54;96960;;;17.4;67.5
68965;BME280;56017;48.680;8.998;2023-03-03T13:02:19;96950;;;17.5;68
68965;BME280;56017;48.680;8.998;2023-03-03T13:04:55;96950;;;17.3;67
68965;BME280;56017;48.680;8.998;2023-03-03T13:07:18;96950;;;16.9;69
68965;BME280;56017;48.680;8.998;2023-03-03T13:09:54;96950;;;16.8;70
68965;BME280;56017;48.680;8.998;2023-03-03T13:12:36;96950;;;16.8;68.5
68965;BME280;56017;48.680;8.998;2023-03-03T13:15:00;96950;;;16.5;70
68965;BME280;56017;48.680;8.998;2023-03-03T13:17:22;96950;;;16;72
68965;BME280;56017;48.680;8.998;2023-03-03T13:19:56;96950;;;16.9;69.5
68965;BME280;56017;48.680;8.998;2023-03-03T13:22:27;96950;;;16.6;68.5
68965;BME280;56017;48.680;8.998;2023-03-03T13:25:02;96950;;;15.4;71.5
68965;BME280;56017;48.680;8.998;2023-03-03T13:27:26;96950;;;15.5;72
68965;BME280;56017;48.680;8.998;2023-03-03T13:30:00;96950;;;15.9;71
68965;BME280;56017;48.680;8.998;2023-03-03T13:33:31;96940;;;16;72
68965;BME280;56017;48.680;8.998;2023-03-03T13:35:08;96940;;;16.2;70.5
68965;BME280;56017;48.680;8.998;2023-03-03T13:37:29;96940;;;16.4;70
68965;BME280;56017;48.680;8.998;2023-03-03T13:40:16;96940;;;17.2;69.5
68965;BME280;56017;48.680;8.998;2023-03-03T13:42:32;96940;;;18.4;68
68965;BME280;56017;48.680;8.998;2023-03-03T13:45:02;96940;;;19.7;65
68965;BME280;56017;48.680;8.998;2023-03-03T13:47:36;96930;;;20.1;63
68965;BME280;56017;48.680;8.998;2023-03-03T13:50:44;96930;;;19.4;65.5
68965;BME280;56017;48.680;8.998;2023-03-03T13:52:46;96930;;;19.4;65
68965;BME280;56017;48.680;8.998;2023-03-03T13:57:40;96930;;;19.2;67.5
68965;BME280;56017;48.680;8.998;2023-03-03T14:07:44;96920;;;20.9;64.5
68965;BME280;56017;48.680;8.998;2023-03-03T14:10:20;96910;;;21.5;62.5
68965;BME280;56017;48.680;8.998;2023-03-03T14:12:50;96910;;;21.6;60.5
68965;BME280;56017;48.680;8.998;2023-03-03T14:15:23;96920;;;22;62
68965;BME280;56017;48.680;8.998;2023-03-03T14:17:50;96920;;;22.1;62.5
68965;BME280;56017;48.680;8.998;2023-03-03T14:23:02;96910;;;22.1;63
68965;BME280;56017;48.680;8.998;2023-03-03T14:27:53;96910;;;21.3;66
68965;BME280;56017;48.680;8.998;2023-03-03T14:33:22;96900;;;22.3;62
68965;BME280;56017;48.680;8.998;2023-03-03T14:35:29;96910;;;22.9;62.5
68965;BME280;56017;48.680;8.998;2023-03-03T14:37:52;96910;;;23;61.5
68965;BME280;56017;48.680;8.998;2023-03-03T14:40:30;96910;;;22.1;63
68965;BME280;56017;48.680;8.998;2023-03-03T14:42:54;96910;;;21.7;64
68965;BME280;56017;48.680;8.998;2023-03-03T14:45:36;96910;;;21.8;63.5
68965;BME280;56017;48.680;8.998;2023-03-03T14:47:56;96910;;;21.7;64
68965;BME280;56017;48.680;8.998;2023-03-03T14:50:35;96910;;;21;63.5
68965;BME280;56017;48.680;8.998;2023-03-03T14:53:30;96920;;;19.9;66.5
68965;BME280;56017;48.680;8.998;2023-03-03T14:55:36;96910;;;19.7;68
68965;BME280;56017;48.680;8.998;2023-03-03T14:58:00;96910;;;20;69
68965;BME280;56017;48.680;8.998;2023-03-03T15:03:19;96910;;;19.6;68.5
68965;BME280;56017;48.680;8.998;2023-03-03T15:05:33;96910;;;17.6;70
68965;BME280;56017;48.680;8.998;2023-03-03T15:08:08;96910;;;17.5;71
68965;BME280;56017;48.680;8.998;2023-03-03T15:10:42;96910;;;18.3;69.5
68965;BME280;56017;48.680;8.998;2023-03-03T15:13:09;96910;;;18.6;69.5
68965;BME280;56017;48.680;8.998;2023-03-03T15:18:09;96910;;;18;70
68965;BME280;56017;48.680;8.998;2023-03-03T15:23:43;96900;;;18.3;69.5
68965;BME280;56017;48.680;8.998;2023-03-03T15:25:43;96900;;;17.7;71.5
68965;BME280;56017;48.680;8.998;2023-03-03T15:28:17;96900;;;18.6;69
68965;BME280;56017;48.680;8.998;2023-03-03T15:30:52;96900;;;19.2;66.5
68965;BME280;56017;48.680;8.998;2023-03-03T15:33:20;96900;;;18.6;68
68965;BME280;56017;48.680;8.998;2023-03-03T15:38:17;96900;;;17.1;71.5
68965;BME280;56017;48.680;8.998;2023-03-03T15:40:56;96900;;;17.4;71
68965;BME280;56017;48.680;8.998;2023-03-03T15:43:23;96900;;;17.2;71
68965;BME280;56017;48.680;8.998;2023-03-03T15:45:52;96900;;;17.8;70
68965;BME280;56017;48.680;8.998;2023-03-03T15:48:30;96900;;;18.5;69
